createdAt,value
2022-10-13T08:38:55.643Z,69.38
2022-10-13T08:42:23.933Z,69.12
2022-10-13T08:45:52.759Z,68.97
2022-10-13T08:49:20.120Z,69.00
2022-10-13T08:52:55.180Z,68.93
2022-10-13T08:56:25.793Z,68.90
2022-10-13T08:59:53.987Z,68.95
2022-10-13T09:03:25.967Z,68.84
2022-10-13T09:06:57.976Z,68.83
2022-10-13T09:10:24.751Z,68.78
2022-10-13T09:13:58.198Z,68.70
2022-10-13T09:17:27.714Z,68.77
2022-10-13T09:21:10.166Z,68.91
2022-10-13T09:24:37.196Z,68.75
2022-10-13T09:28:10.434Z,68.78
2022-10-13T09:31:38.762Z,68.72
2022-10-13T09:35:24.360Z,68.44
2022-10-13T09:39:09.526Z,68.37
2022-10-13T09:42:39.000Z,68.26
2022-10-13T09:46:20.656Z,67.76
2022-10-13T09:49:48.462Z,67.53
2022-10-13T09:53:25.348Z,67.10
2022-10-13T09:57:00.908Z,67.01
2022-10-13T10:00:30.418Z,66.73
2022-10-13T10:03:58.838Z,66.75
2022-10-13T10:07:31.598Z,66.47
2022-10-13T10:11:01.922Z,66.29
2022-10-13T10:14:30.522Z,66.03
2022-10-13T10:18:00.187Z,65.71
2022-10-13T10:21:36.567Z,65.47
2022-10-13T10:25:18.249Z,65.48
2022-10-13T10:29:13.065Z,65.23
2022-10-13T10:32:51.340Z,65.01
2022-10-13T10:36:24.225Z,64.62
2022-10-13T10:40:01.663Z,64.13
2022-10-13T10:43:48.645Z,64.11
2022-10-13T10:47:34.902Z,63.86
2022-10-13T10:51:11.001Z,63.51
2022-10-13T10:54:49.557Z,63.37
2022-10-13T10:58:29.236Z,63.06
2022-10-13T11:02:05.036Z,62.89
2022-10-13T11:06:05.083Z,62.47
2022-10-13T11:10:17.960Z,62.21
2022-10-13T11:13:56.850Z,61.77
2022-10-13T11:17:31.292Z,61.45
2022-10-13T11:21:03.420Z,61.22
2022-10-13T11:24:50.618Z,61.07
2022-10-13T11:28:44.585Z,60.69
2022-10-13T11:32:55.645Z,60.50
2022-10-13T11:36:55.069Z,60.19
2022-10-13T11:40:30.206Z,59.72
2022-10-13T11:44:03.666Z,59.76
2022-10-13T11:47:56.733Z,59.94
2022-10-13T11:51:33.249Z,59.95
2022-10-13T11:55:08.510Z,59.42
2022-10-13T11:58:43.432Z,59.34
2022-10-13T12:02:19.137Z,59.04
2022-10-13T12:05:49.189Z,58.60
2022-10-13T12:09:21.548Z,58.37
2022-10-13T12:12:55.187Z,58.17
2022-10-13T12:16:24.971Z,57.94
2022-10-13T12:19:52.063Z,57.79
2022-10-13T12:23:20.423Z,57.51
2022-10-13T12:26:47.165Z,57.25
2022-10-13T12:30:25.508Z,57.04
2022-10-13T12:33:58.073Z,56.50
2022-10-13T12:37:31.195Z,56.42
2022-10-13T12:40:56.307Z,55.97
2022-10-13T12:44:26.336Z,55.93
2022-10-13T12:47:54.743Z,55.48
2022-10-13T12:51:26.033Z,55.13
2022-10-13T12:54:56.194Z,55.07
2022-10-13T12:58:27.230Z,54.69
2022-10-13T13:02:00.108Z,54.38
2022-10-13T13:05:37.563Z,54.26
2022-10-13T13:09:22.077Z,54.01
2022-10-13T13:12:50.356Z,53.82
2022-10-13T13:16:20.437Z,53.83
2022-10-13T13:19:50.352Z,53.85
2022-10-13T13:23:19.242Z,53.38
2022-10-13T13:26:48.962Z,53.09
2022-10-13T13:30:19.536Z,52.87
2022-10-13T13:33:47.859Z,52.62
2022-10-13T13:37:24.764Z,52.47
2022-10-13T13:40:51.349Z,52.22
2022-10-13T13:44:18.223Z,51.94
2022-10-13T13:47:52.219Z,51.89
2022-10-13T13:51:19.684Z,51.66
2022-10-13T13:54:50.858Z,51.70
2022-10-13T13:58:19.588Z,51.73
2022-10-13T14:01:45.800Z,51.62
2022-10-13T14:05:15.847Z,51.45
2022-10-13T14:08:47.693Z,51.30
2022-10-13T14:12:13.996Z,51.31
2022-10-13T14:15:40.848Z,51.30
2022-10-13T14:19:07.759Z,51.25
2022-10-13T14:22:38.744Z,51.23
2022-10-13T14:26:13.174Z,51.38
2022-10-13T14:29:40.363Z,51.41
2022-10-13T14:33:08.814Z,51.40
2022-10-13T14:36:36.876Z,51.36
2022-10-13T14:40:08.508Z,51.27
2022-10-13T14:43:35.872Z,51.51
2022-10-13T14:47:03.013Z,51.55
2022-10-13T14:50:30.778Z,51.41
2022-10-13T14:53:57.464Z,51.60
2022-10-13T14:57:32.121Z,51.81
2022-10-13T15:00:58.450Z,51.93
2022-10-13T15:04:26.266Z,52.05
2022-10-13T15:07:52.748Z,52.11
2022-10-13T15:11:21.781Z,52.30
2022-10-13T15:14:48.416Z,52.30
2022-10-13T15:18:15.600Z,52.51
2022-10-13T15:21:43.113Z,52.58
2022-10-13T15:25:12.055Z,52.69
2022-10-13T15:28:44.124Z,52.86
2022-10-13T15:32:16.097Z,52.90
2022-10-13T15:35:43.514Z,53.01
2022-10-13T15:39:12.791Z,53.26
2022-10-13T15:42:39.992Z,53.09
2022-10-13T15:46:09.691Z,53.37
2022-10-13T15:49:39.028Z,53.52
2022-10-13T15:53:05.876Z,53.71
2022-10-13T15:56:33.140Z,53.77
2022-10-13T16:00:00.428Z,54.00
2022-10-13T16:03:30.344Z,54.18
2022-10-13T16:06:57.815Z,54.31
2022-10-13T16:10:24.511Z,54.29
2022-10-13T16:13:53.737Z,54.40
2022-10-13T16:17:20.993Z,54.36
2022-10-13T16:20:50.371Z,54.65
2022-10-13T16:24:17.270Z,54.83
2022-10-13T16:27:44.782Z,55.01
2022-10-13T16:31:14.722Z,55.14
2022-10-13T16:34:43.520Z,55.28
2022-10-13T16:38:11.284Z,55.46
2022-10-13T16:41:39.141Z,55.43
2022-10-13T16:45:07.439Z,55.61
2022-10-13T16:48:38.833Z,55.54
2022-10-13T16:52:05.345Z,55.88
2022-10-13T16:55:34.953Z,55.93
2022-10-13T16:59:03.631Z,56.08
2022-10-13T17:02:32.908Z,56.29
2022-10-13T17:06:01.777Z,56.23
2022-10-13T17:09:28.852Z,56.49
2022-10-13T17:12:58.453Z,56.53
2022-10-13T17:16:26.094Z,56.83
2022-10-13T17:19:53.277Z,56.78
2022-10-13T17:23:35.976Z,56.96
2022-10-13T17:27:02.911Z,57.00
2022-10-13T17:30:32.743Z,57.01
2022-10-13T17:34:00.867Z,57.00
2022-10-13T17:37:27.964Z,56.93
2022-10-13T17:40:59.611Z,57.12
2022-10-13T17:44:29.900Z,57.13
2022-10-13T17:47:58.832Z,57.18
2022-10-13T17:51:28.819Z,57.25
2022-10-13T17:54:58.230Z,57.25
2022-10-13T17:58:27.946Z,57.57
2022-10-13T18:01:55.886Z,57.51
2022-10-13T18:05:23.019Z,57.65
2022-10-13T18:08:51.615Z,57.76
2022-10-13T18:12:18.530Z,57.89
2022-10-13T18:15:45.424Z,57.93
2022-10-13T18:19:13.088Z,58.05
2022-10-13T18:22:44.542Z,58.24
2022-10-13T18:26:13.298Z,58.18
2022-10-13T18:29:40.488Z,58.38
2022-10-13T18:33:08.425Z,58.40
2022-10-13T18:36:37.594Z,58.58
2022-10-13T18:40:12.816Z,58.52
2022-10-13T18:43:40.448Z,58.76
2022-10-13T18:47:07.963Z,58.74
2022-10-13T18:50:40.057Z,58.84
2022-10-13T18:54:06.927Z,58.83
2022-10-13T18:57:33.710Z,58.88
2022-10-13T19:01:06.235Z,58.85
2022-10-13T19:04:33.214Z,58.93
2022-10-13T19:08:00.202Z,59.00
2022-10-13T19:11:28.275Z,58.98
2022-10-13T19:14:54.816Z,58.97
2022-10-13T19:18:21.355Z,59.11
2022-10-13T19:21:48.203Z,59.16
2022-10-13T19:25:15.407Z,59.25
2022-10-13T19:28:48.135Z,59.38
2022-10-13T19:32:16.775Z,59.40
2022-10-13T19:35:47.794Z,59.59
2022-10-13T19:39:17.106Z,59.65
2022-10-13T19:42:43.817Z,59.68
2022-10-13T19:46:11.181Z,59.73
2022-10-13T19:49:37.948Z,59.76
2022-10-13T19:53:05.048Z,59.80
2022-10-13T19:56:34.132Z,59.96
2022-10-13T20:00:00.696Z,60.02
2022-10-13T20:03:28.369Z,60.10
2022-10-13T20:06:58.182Z,60.16
2022-10-13T20:10:24.847Z,60.14
2022-10-13T20:13:54.867Z,60.19
2022-10-13T20:17:21.791Z,60.33
2022-10-13T20:20:48.824Z,60.18
2022-10-13T20:24:16.126Z,60.22
2022-10-13T20:27:45.911Z,60.35
2022-10-13T20:31:14.490Z,60.23
2022-10-13T20:34:41.877Z,60.30
2022-10-13T20:38:09.295Z,60.36
2022-10-13T20:41:40.114Z,60.33
2022-10-13T20:45:12.951Z,60.48
2022-10-13T20:49:08.744Z,60.47
2022-10-13T20:52:28.926Z,60.51
2022-10-13T20:56:00.214Z,60.61
2022-10-13T20:59:27.178Z,60.67
2022-10-13T21:02:57.778Z,60.61
2022-10-13T21:06:31.437Z,60.66
2022-10-13T21:10:05.864Z,60.93
2022-10-13T21:13:33.212Z,60.85
2022-10-13T21:17:03.454Z,61.07
2022-10-13T21:20:31.863Z,61.06
2022-10-13T21:24:01.442Z,61.18
2022-10-13T21:27:29.364Z,61.25
2022-10-13T21:31:05.155Z,61.04
2022-10-13T21:34:32.948Z,61.10
2022-10-13T21:38:01.437Z,61.21
2022-10-13T21:41:32.176Z,61.16
2022-10-13T21:45:13.153Z,61.07
2022-10-13T21:48:40.336Z,61.19
2022-10-13T21:52:11.482Z,61.32
2022-10-13T21:55:38.920Z,61.20
2022-10-13T21:59:07.044Z,61.23
2022-10-13T22:02:37.843Z,61.31
2022-10-13T22:06:13.256Z,61.37
2022-10-13T22:09:46.188Z,61.34
2022-10-13T22:13:12.697Z,61.45
2022-10-13T22:16:43.989Z,61.52
2022-10-13T22:20:12.010Z,61.53
2022-10-13T22:23:43.871Z,61.53
2022-10-13T22:27:10.271Z,61.78
2022-10-13T22:30:41.745Z,61.83
2022-10-13T22:34:15.416Z,61.89
2022-10-13T22:37:45.473Z,61.99
2022-10-13T22:41:15.004Z,61.98
2022-10-13T22:44:41.951Z,62.00
2022-10-13T22:48:14.703Z,61.93
2022-10-13T22:51:42.113Z,61.91
2022-10-13T22:55:19.853Z,62.07
2022-10-13T22:58:50.186Z,61.97
2022-10-13T23:02:18.462Z,61.96
2022-10-13T23:05:50.217Z,61.98
2022-10-13T23:09:19.742Z,62.20
2022-10-13T23:12:46.527Z,62.25
2022-10-13T23:16:15.204Z,62.29
2022-10-13T23:19:44.677Z,62.33
2022-10-13T23:23:12.133Z,62.21
2022-10-13T23:26:39.093Z,62.59
2022-10-13T23:30:06.724Z,62.46
2022-10-13T23:33:33.349Z,62.91
2022-10-13T23:37:00.618Z,62.67
2022-10-13T23:40:27.315Z,62.71
2022-10-13T23:43:54.465Z,62.89
2022-10-13T23:47:21.364Z,62.88
2022-10-13T23:50:52.517Z,62.95
2022-10-13T23:54:19.193Z,62.99
2022-10-13T23:57:46.185Z,62.91
